Time;durP1;ratioP1;P1;durP2;ratioP2;P2;SDS_P1;SDS_P2;PMS_P1;PMS_P2;Temp;Humidity;BMP_temperature;BMP_pressure;BME280_temperature;BME280_humidity;BME280_pressure;Samples;Min_cycle;Max_cycle;Signal;HPM_P1;HPM_P2
2021/03/12 00:00:31;;;;;;;3.37;0.90;;;;;14.90;99141.00;;;;2075832;28;20217;-64
2021/03/12 00:01:32;;;;;;;2.22;1.55;;;;;14.90;99168.00;;;;2076382;28;20352;-64
2021/03/12 00:02:32;;;;;;;1.43;1.00;;;;;15.00;99167.00;;;;2076587;28;20634;-64
2021/03/12 00:03:35;;;;;;;2.17;1.00;;;;;14.90;99165.00;;;;2085402;28;20213;-64
2021/03/12 00:04:35;;;;;;;2.70;1.25;;;;;14.90;99169.00;;;;2085479;28;20220;-64
2021/03/12 00:05:44;;;;;;;2.60;1.00;;;;;14.90;99166.00;;;;2084820;28;20716;-64
2021/03/12 00:06:44;;;;;;;1.60;0.90;;;;;14.90;99172.00;;;;2084702;28;20619;-64
2021/03/12 00:07:44;;;;;;;1.43;0.80;;;;;14.90;99171.00;;;;2085535;28;20202;-64
2021/03/12 00:08:45;;;;;;;1.13;0.97;;;;;15.00;99175.00;;;;2085525;28;20213;-64
2021/03/12 00:09:46;;;;;;;1.75;0.80;;;;;14.90;99178.00;;;;2092891;28;20198;-65
2021/03/12 00:10:46;;;;;;;1.60;0.93;;;;;14.90;99180.00;;;;2093086;28;20572;-64
2021/03/12 00:11:47;;;;;;;1.10;0.87;;;;;14.90;99181.00;;;;2085618;28;20203;-64
2021/03/12 00:12:47;;;;;;;1.10;0.80;;;;;14.90;99175.00;;;;2092578;28;20197;-64
2021/03/12 00:13:47;;;;;;;1.70;0.80;;;;;14.90;99175.00;;;;2093191;28;20197;-64
2021/03/12 00:14:48;;;;;;;1.90;1.00;;;;;15.00;99162.00;;;;2085522;28;20252;-65
2021/03/12 00:15:48;;;;;;;1.13;0.87;;;;;14.90;99181.00;;;;2086806;28;20258;-64
2021/03/12 00:16:48;;;;;;;0.90;0.60;;;;;14.90;99163.00;;;;2085049;28;20288;-64
2021/03/12 00:17:49;;;;;;;1.40;0.97;;;;;15.00;99169.00;;;;2085397;28;20201;-65
2021/03/12 00:18:50;;;;;;;1.77;1.00;;;;;14.90;99185.00;;;;2068782;28;20203;-64
2021/03/12 00:19:50;;;;;;;1.37;0.90;;;;;15.00;99178.00;;;;2067382;28;20578;-64
2021/03/12 00:20:50;;;;;;;2.67;0.93;;;;;15.00;99185.00;;;;2085721;28;20225;-64
2021/03/12 00:21:51;;;;;;;1.17;0.70;;;;;14.90;99180.00;;;;2086018;28;20226;-65
2021/03/12 00:22:51;;;;;;;1.40;0.80;;;;;15.00;99182.00;;;;2085860;28;20281;-64
2021/03/12 00:23:52;;;;;;;1.17;0.70;;;;;14.90;99177.00;;;;2085790;28;20210;-65
2021/03/12 00:24:52;;;;;;;1.23;0.60;;;;;14.90;99183.00;;;;2084706;28;20616;-64
2021/03/12 00:25:52;;;;;;;1.13;0.80;;;;;14.90;99191.00;;;;2084572;28;20246;-64
2021/03/12 00:26:58;;;;;;;1.87;1.20;;;;;14.90;99187.00;;;;2083430;28;20279;-64
2021/03/12 00:27:59;;;;;;;1.75;0.90;;;;;14.90;99192.00;;;;2085864;28;20217;-64
2021/03/12 00:28:59;;;;;;;1.27;0.70;;;;;14.90;99192.00;;;;2085648;28;20206;-64
2021/03/12 00:29:59;;;;;;;2.00;0.90;;;;;15.00;99202.00;;;;2085871;28;20755;-64
2021/03/12 00:31:00;;;;;;;1.20;0.73;;;;;14.90;99196.00;;;;2085875;28;20222;-64
2021/03/12 00:32:01;;;;;;;1.50;0.70;;;;;14.90;99203.00;;;;2085409;28;20276;-64
2021/03/12 00:33:01;;;;;;;1.40;0.80;;;;;14.90;99204.00;;;;2085835;28;20577;-64
2021/03/12 00:34:01;;;;;;;1.50;0.70;;;;;14.90;99208.00;;;;2074321;28;20222;-64
2021/03/12 00:35:03;;;;;;;1.93;1.10;;;;;14.90;99207.00;;;;2072972;28;20214;-64
2021/03/12 00:36:05;;;;;;;2.65;0.90;;;;;14.90;99207.00;;;;2076482;28;20665;-65
2021/03/12 00:37:05;;;;;;;1.77;0.80;;;;;14.90;99200.00;;;;2074197;28;20226;-64
2021/03/12 00:38:05;;;;;;;2.43;0.73;;;;;14.90;99207.00;;;;2085781;28;20241;-64
2021/03/12 00:39:06;;;;;;;1.30;0.83;;;;;14.90;99217.00;;;;2085261;28;20216;-64
2021/03/12 00:40:37;;;;;;;1.63;0.90;;;;;15.00;99226.00;;;;2093240;28;20219;-65
2021/03/12 00:41:37;;;;;;;1.77;0.82;;;;;14.90;99217.00;;;;2086926;28;20209;-64
2021/03/12 00:42:38;;;;;;;1.37;0.70;;;;;14.90;99219.00;;;;2084345;28;20213;-64
2021/03/12 00:43:38;;;;;;;1.33;0.83;;;;;14.90;99226.00;;;;2085796;28;20209;-64
2021/03/12 00:44:38;;;;;;;1.40;0.83;;;;;14.90;99220.00;;;;2085383;28;20217;-64
2021/03/12 00:45:40;;;;;;;1.13;0.70;;;;;14.90;99217.00;;;;2077812;28;20234;-64
2021/03/12 00:46:40;;;;;;;1.55;0.90;;;;;14.90;99227.00;;;;2070399;28;20222;-64
2021/03/12 00:47:42;;;;;;;1.17;0.70;;;;;14.90;99227.00;;;;2068900;28;20865;-64
2021/03/12 00:48:42;;;;;;;1.05;0.80;;;;;14.90;99226.00;;;;2082999;28;20293;-64
2021/03/12 00:49:42;;;;;;;1.53;0.73;;;;;14.90;99234.00;;;;2082627;28;20610;-64
2021/03/12 00:50:43;;;;;;;1.03;0.70;;;;;15.00;99230.00;;;;2084800;28;20456;-65
2021/03/12 00:51:43;;;;;;;1.10;0.73;;;;;14.90;99238.00;;;;2085341;28;20342;-64
2021/03/12 00:52:44;;;;;;;0.90;0.67;;;;;14.90;99244.00;;;;2085541;28;20221;-64
2021/03/12 00:53:44;;;;;;;1.10;0.83;;;;;14.90;99250.00;;;;2085830;28;20241;-64
2021/03/12 00:54:44;;;;;;;0.83;0.70;;;;;14.90;99246.00;;;;2082699;28;20222;-64
2021/03/12 00:55:44;;;;;;;1.27;0.77;;;;;14.90;99261.00;;;;2085663;28;20705;-65
2021/03/12 00:56:45;;;;;;;1.23;0.70;;;;;14.90;99240.00;;;;2085162;28;20206;-65
2021/03/12 00:57:45;;;;;;;1.10;1.00;;;;;15.00;99255.00;;;;2085689;28;20297;-64
2021/03/12 00:58:46;;;;;;;1.50;0.87;;;;;14.90;99254.00;;;;2084602;28;20210;-64
2021/03/12 00:59:46;;;;;;;1.03;0.70;;;;;14.90;99253.00;;;;2085680;28;20740;-64
2021/03/12 01:00:46;;;;;;;0.90;0.63;;;;;14.90;99254.00;;;;2085410;28;20205;-64
2021/03/12 01:01:47;;;;;;;1.70;0.80;;;;;14.90;99260.00;;;;2074319;28;20243;-64
2021/03/12 01:02:47;;;;;;;1.17;0.83;;;;;14.90;99264.00;;;;2076807;28;20210;-64
2021/03/12 01:03:47;;;;;;;1.40;0.80;;;;;14.90;99268.00;;;;2085713;28;20732;-64
2021/03/12 01:04:48;;;;;;;1.23;0.70;;;;;14.90;99262.00;;;;2084896;28;20607;-64
2021/03/12 01:05:48;;;;;;;1.33;0.90;;;;;14.90;99262.00;;;;2085562;28;20640;-64
2021/03/12 01:06:49;;;;;;;1.70;0.90;;;;;14.90;99265.00;;;;2084918;28;20212;-65
2021/03/12 01:07:49;;;;;;;2.17;0.90;;;;;14.90;99261.00;;;;2085635;28;20210;-64
2021/03/12 01:08:49;;;;;;;1.40;0.90;;;;;14.60;99260.00;;;;2085215;28;20272;-64
2021/03/12 01:09:50;;;;;;;1.13;0.70;;;;;14.90;99272.00;;;;2084837;28;20214;-64
2021/03/12 01:10:50;;;;;;;1.13;0.60;;;;;14.90;99261.00;;;;2087500;28;20224;-64
2021/03/12 01:11:51;;;;;;;1.33;0.80;;;;;14.90;99266.00;;;;2083842;28;20228;-64
2021/03/12 01:12:51;;;;;;;1.30;0.90;;;;;14.90;99272.00;;;;2085500;28;20256;-64
2021/03/12 01:13:51;;;;;;;1.20;0.73;;;;;14.90;99268.00;;;;2085481;28;20203;-64
2021/03/12 01:14:52;;;;;;;1.10;0.70;;;;;14.90;99275.00;;;;2085450;28;20198;-64
2021/03/12 01:15:52;;;;;;;1.60;1.00;;;;;14.90;99276.00;;;;2087274;28;20220;-64
2021/03/12 01:16:52;;;;;;;1.43;0.83;;;;;14.90;99280.00;;;;2083897;28;20224;-65
2021/03/12 01:17:53;;;;;;;2.20;1.10;;;;;14.90;99289.00;;;;2084010;28;20212;-64
2021/03/12 01:18:53;;;;;;;1.80;1.00;;;;;14.90;99286.00;;;;2084189;28;20206;-64
2021/03/12 01:19:54;;;;;;;1.23;0.80;;;;;14.90;99286.00;;;;2084288;28;20692;-64
2021/03/12 01:20:54;;;;;;;1.00;0.70;;;;;14.90;99275.00;;;;2085062;28;20221;-64
2021/03/12 01:21:54;;;;;;;1.50;0.90;;;;;14.90;99273.00;;;;2085485;28;20217;-64
2021/03/12 01:22:56;;;;;;;1.87;1.17;;;;;14.90;99280.00;;;;2085230;28;20248;-64
2021/03/12 01:23:56;;;;;;;1.50;0.90;;;;;14.90;99271.00;;;;2085501;28;20700;-64
2021/03/12 01:24:57;;;;;;;1.60;0.70;;;;;14.90;99275.00;;;;2085200;28;20288;-65
2021/03/12 01:25:58;;;;;;;1.73;0.80;;;;;14.90;99271.00;;;;2086458;28;20267;-65
2021/03/12 01:26:59;;;;;;;1.63;0.82;;;;;14.90;99269.00;;;;2084497;28;20224;-64
2021/03/12 01:27:59;;;;;;;1.80;1.10;;;;;14.90;99281.00;;;;2085399;28;20214;-65
2021/03/12 01:29:00;;;;;;;2.17;0.97;;;;;14.90;99270.00;;;;2085165;28;20222;-64
2021/03/12 01:30:00;;;;;;;1.10;0.77;;;;;14.90;99264.00;;;;2085617;28;20577;-64
2021/03/12 01:31:00;;;;;;;1.30;0.80;;;;;14.90;99267.00;;;;2085152;28;20212;-64
2021/03/12 01:32:01;;;;;;;0.80;0.70;;;;;14.90;99277.00;;;;2085354;28;20241;-65
2021/03/12 01:33:01;;;;;;;1.07;0.63;;;;;14.90;99275.00;;;;2085206;28;20210;-64
2021/03/12 01:34:01;;;;;;;1.30;0.70;;;;;14.90;99283.00;;;;2092732;28;20205;-64
2021/03/12 01:35:02;;;;;;;1.40;0.70;;;;;14.90;99290.00;;;;2092572;28;20209;-64
2021/03/12 01:36:03;;;;;;;0.93;0.50;;;;;14.90;99294.00;;;;2084417;28;20198;-64
2021/03/12 01:37:03;;;;;;;1.37;0.90;;;;;14.90;99289.00;;;;2085103;28;20473;-64
2021/03/12 01:38:04;;;;;;;1.13;0.80;;;;;14.90;99290.00;;;;2085347;28;20202;-64
2021/03/12 01:39:04;;;;;;;1.30;0.90;;;;;14.90;99293.00;;;;2076266;28;20214;-64
2021/03/12 01:40:06;;;;;;;1.20;0.77;;;;;14.90;99304.00;;;;2076574;28;20221;-65
2021/03/12 01:41:06;;;;;;;0.88;0.55;;;;;14.90;99290.00;;;;2085739;28;20214;-65
2021/03/12 01:42:07;;;;;;;1.10;0.80;;;;;14.90;99304.00;;;;2085251;28;20876;-64
2021/03/12 01:43:07;;;;;;;1.83;0.80;;;;;14.90;99296.00;;;;2085284;28;20286;-63
2021/03/12 01:44:07;;;;;;;0.90;0.60;;;;;14.90;99296.00;;;;2085437;28;20201;-64
2021/03/12 01:45:13;;;;;;;1.17;0.90;;;;;14.90;99293.00;;;;2075967;28;20293;-65
2021/03/12 01:46:13;;;;;;;0.90;0.60;;;;;14.90;99299.00;;;;2075739;28;20222;-65
2021/03/12 01:47:14;;;;;;;1.37;0.70;;;;;14.90;99312.00;;;;2082710;28;20218;-64
2021/03/12 01:48:19;;;;;;;0.70;0.70;;;;;14.90;99312.00;;;;2082665;28;20622;-65
2021/03/12 01:49:19;;;;;;;1.52;0.70;;;;;14.90;99309.00;;;;2084349;28;20673;-64
2021/03/12 01:50:20;;;;;;;1.17;0.60;;;;;14.90;99320.00;;;;2092177;28;20266;-64
2021/03/12 01:51:20;;;;;;;1.20;0.60;;;;;14.90;99314.00;;;;2092548;28;20274;-65
2021/03/12 01:52:21;;;;;;;0.90;0.80;;;;;14.90;99289.00;;;;2084063;28;20510;-64
2021/03/12 01:53:22;;;;;;;0.93;0.80;;;;;14.90;99326.00;;;;2075874;28;20214;-64
2021/03/12 01:54:22;;;;;;;1.63;0.85;;;;;14.90;99318.00;;;;2076256;28;20289;-64
2021/03/12 01:55:32;;;;;;;1.13;0.73;;;;;14.90;99320.00;;;;2085089;28;20751;-64
2021/03/12 01:56:32;;;;;;;0.90;0.65;;;;;14.90;99333.00;;;;2084768;28;20267;-65
2021/03/12 01:57:33;;;;;;;1.50;0.80;;;;;14.90;99324.00;;;;2076199;28;20296;-64
2021/03/12 01:58:33;;;;;;;1.70;0.75;;;;;14.90;99325.00;;;;2076377;28;20256;-65
2021/03/12 01:59:34;;;;;;;1.40;1.00;;;;;14.90;99325.00;;;;2076043;28;20213;-64
2021/03/12 02:00:34;;;;;;;1.67;1.07;;;;;14.90;99324.00;;;;2076362;28;20214;-64
2021/03/12 02:01:35;;;;;;;1.43;1.00;;;;;14.90;99326.00;;;;2075898;28;20213;-65
2021/03/12 02:02:35;;;;;;;2.80;1.10;;;;;14.90;99329.00;;;;2086433;28;20221;-65
2021/03/12 02:03:35;;;;;;;1.63;0.63;;;;;14.90;99335.00;;;;2084211;28;20252;-64
2021/03/12 02:04:36;;;;;;;1.90;0.90;;;;;14.90;99329.00;;;;2076420;28;20214;-64
2021/03/12 02:05:37;;;;;;;1.17;0.70;;;;;15.00;99325.00;;;;2076411;28;20214;-63
2021/03/12 02:06:37;;;;;;;0.80;0.60;;;;;14.90;99345.00;;;;2084482;28;20236;-64
2021/03/12 02:07:37;;;;;;;1.37;0.80;;;;;14.90;99331.00;;;;2085146;28;20210;-64
2021/03/12 02:08:38;;;;;;;1.40;0.73;;;;;14.90;99339.00;;;;2085132;28;20336;-64
2021/03/12 02:09:38;;;;;;;1.80;0.80;;;;;14.90;99330.00;;;;2084941;28;20210;-64
2021/03/12 02:10:39;;;;;;;2.00;0.80;;;;;14.90;99331.00;;;;2076313;28;20293;-64
2021/03/12 02:11:39;;;;;;;1.30;0.70;;;;;14.90;99348.00;;;;2068238;28;20218;-64
2021/03/12 02:12:48;;;;;;;1.40;0.90;;;;;14.90;99358.00;;;;2076289;28;20210;-64
2021/03/12 02:14:01;;;;;;;1.05;0.80;;;;;14.90;99348.00;;;;2071447;28;20210;-64
2021/03/12 02:15:06;;;;;;;2.03;0.90;;;;;14.90;99347.00;;;;2076133;28;20971;-64
2021/03/12 02:16:20;;;;;;;0.77;0.70;;;;;14.90;99347.00;;;;2076606;28;20276;-64
2021/03/12 02:17:24;;;;;;;1.65;0.70;;;;;14.90;99342.00;;;;2073618;28;20214;-64
2021/03/12 02:18:42;;;;;;;1.23;0.80;;;;;14.90;99329.00;;;;2059518;28;20254;-65
2021/03/12 02:19:54;;;;;;;1.70;0.80;;;;;14.90;99339.00;;;;2072726;28;20222;-64
2021/03/12 02:20:58;;;;;;;1.80;0.80;;;;;14.90;99340.00;;;;2083150;28;20210;-64
2021/03/12 02:21:58;;;;;;;1.75;0.90;;;;;14.90;99339.00;;;;2091761;28;20212;-63
2021/03/12 02:23:17;;;;;;;1.80;0.80;;;;;14.90;99335.00;;;;2090937;28;20244;-64
2021/03/12 02:25:05;;;;;;;1.33;0.80;;;;;14.90;99339.00;;;;2075627;28;20312;-63
2021/03/12 02:26:18;;;;;;;1.90;0.90;;;;;14.90;99344.00;;;;2054067;28;20824;-64
2021/03/12 02:27:19;;;;;;;1.83;0.90;;;;;14.90;99337.00;;;;2081268;28;20225;-64
2021/03/12 02:28:20;;;;;;;1.67;0.70;;;;;14.90;99335.00;;;;2082314;28;20217;-64
2021/03/12 02:29:21;;;;;;;1.30;0.80;;;;;14.90;99343.00;;;;2084249;28;20236;-64
2021/03/12 02:30:22;;;;;;;2.47;0.70;;;;;14.90;99344.00;;;;2091578;28;20213;-64
2021/03/12 02:31:22;;;;;;;1.30;0.70;;;;;14.90;99349.00;;;;2083430;28;20216;-64
2021/03/12 02:32:43;;;;;;;1.63;1.00;;;;;14.90;99346.00;;;;2067502;28;20218;-64
2021/03/12 02:33:43;;;;;;;1.42;1.00;;;;;14.90;99354.00;;;;2078299;28;20297;-63
2021/03/12 02:34:46;;;;;;;1.00;0.80;;;;;14.90;99357.00;;;;2075708;28;20314;-64
2021/03/12 02:35:46;;;;;;;1.45;0.70;;;;;14.90;99362.00;;;;2067565;28;20285;-64
2021/03/12 02:36:48;;;;;;;1.30;1.03;;;;;14.90;99360.00;;;;2075192;28;20225;-64
2021/03/12 02:37:49;;;;;;;1.90;0.95;;;;;14.90;99362.00;;;;2073982;28;20705;-64
2021/03/12 02:38:49;;;;;;;0.80;0.60;;;;;14.90;99375.00;;;;2084752;28;20206;-64
2021/03/12 02:39:53;;;;;;;1.20;0.70;;;;;14.90;99368.00;;;;2083482;28;20452;-64
2021/03/12 02:40:54;;;;;;;1.25;0.75;;;;;14.90;99378.00;;;;2075424;28;20285;-64
2021/03/12 02:41:54;;;;;;;2.50;1.00;;;;;14.90;99374.00;;;;2068053;28;20203;-64
2021/03/12 02:42:55;;;;;;;1.43;1.00;;;;;14.90;99383.00;;;;2075961;28;20642;-64
2021/03/12 02:43:55;;;;;;;1.10;0.70;;;;;14.90;99381.00;;;;2075222;28;20673;-65
2021/03/12 02:44:58;;;;;;;2.17;1.17;;;;;14.90;99381.00;;;;2070695;28;20211;-65
2021/03/12 02:45:58;;;;;;;1.20;0.80;;;;;14.90;99382.00;;;;2054627;28;20207;-64
2021/03/12 02:47:03;;;;;;;1.40;0.70;;;;;14.90;99383.00;;;;2056375;28;20846;-64
2021/03/12 02:48:04;;;;;;;1.55;0.80;;;;;14.90;99391.00;;;;2073267;28;20688;-64
2021/03/12 02:49:05;;;;;;;1.40;0.77;;;;;14.90;99387.00;;;;2074409;28;20209;-64
2021/03/12 02:50:06;;;;;;;1.53;0.80;;;;;14.90;99393.00;;;;2075863;28;20234;-64
2021/03/12 02:51:07;;;;;;;1.63;0.90;;;;;14.90;99396.00;;;;2067754;28;20320;-63
2021/03/12 02:52:07;;;;;;;1.40;1.00;;;;;14.90;99390.00;;;;2062533;28;20242;-64
2021/03/12 02:53:07;;;;;;;0.93;0.70;;;;;14.90;99391.00;;;;2075972;28;20225;-64
2021/03/12 02:54:09;;;;;;;0.73;0.67;;;;;14.90;99396.00;;;;2075740;28;20213;-64
2021/03/12 02:55:09;;;;;;;1.33;0.70;;;;;14.90;99391.00;;;;2076095;28;20217;-64
2021/03/12 02:56:10;;;;;;;1.93;0.87;;;;;14.90;99394.00;;;;2082835;28;20680;-64
2021/03/12 02:57:18;;;;;;;1.50;0.80;;;;;14.90;99391.00;;;;2081625;28;21018;-64
2021/03/12 02:58:19;;;;;;;0.93;0.68;;;;;14.90;99404.00;;;;2090793;28;20312;-63
2021/03/12 02:59:19;;;;;;;1.00;0.90;;;;;14.90;99404.00;;;;2075078;28;20237;-64
2021/03/12 03:00:20;;;;;;;1.20;0.80;;;;;14.90;99396.00;;;;2059579;28;20663;-64
2021/03/12 03:01:20;;;;;;;1.63;0.90;;;;;14.90;99398.00;;;;2075923;28;20711;-64
2021/03/12 03:02:22;;;;;;;1.00;0.70;;;;;14.90;99391.00;;;;2075779;28;20789;-64
2021/03/12 03:03:22;;;;;;;1.40;1.02;;;;;14.90;99393.00;;;;2075903;28;20881;-64
2021/03/12 03:04:22;;;;;;;1.23;0.80;;;;;14.90;99401.00;;;;2083527;28;20214;-64
2021/03/12 03:05:23;;;;;;;1.00;0.80;;;;;14.90;99412.00;;;;2067068;28;20330;-64
2021/03/12 03:06:24;;;;;;;1.40;0.80;;;;;14.90;99399.00;;;;2066996;28;20237;-64
2021/03/12 03:07:24;;;;;;;2.17;1.10;;;;;14.90;99403.00;;;;2075975;28;20595;-64
2021/03/12 03:08:24;;;;;;;2.03;1.00;;;;;14.90;99408.00;;;;2067708;28;20233;-64
2021/03/12 03:09:25;;;;;;;1.67;0.70;;;;;14.90;99404.00;;;;2075835;28;20221;-64
2021/03/12 03:10:25;;;;;;;1.50;0.73;;;;;14.90;99414.00;;;;2067715;28;20669;-64
2021/03/12 03:11:26;;;;;;;0.87;0.70;;;;;14.90;99425.00;;;;2083525;28;20574;-64
2021/03/12 03:12:26;;;;;;;0.97;0.60;;;;;14.90;99414.00;;;;2074546;28;20353;-65
2021/03/12 03:13:34;;;;;;;1.27;0.83;;;;;14.90;99408.00;;;;2059687;28;20222;-64
2021/03/12 03:14:34;;;;;;;0.88;0.75;;;;;14.90;99420.00;;;;2074493;28;20226;-64
2021/03/12 03:15:34;;;;;;;1.00;0.80;;;;;14.90;99416.00;;;;2084614;28;20217;-64
2021/03/12 03:16:36;;;;;;;1.60;0.87;;;;;14.90;99419.00;;;;2083882;28;20645;-65
2021/03/12 03:17:36;;;;;;;0.80;0.70;;;;;14.90;99424.00;;;;2078593;28;20218;-64
2021/03/12 03:18:38;;;;;;;1.77;1.03;;;;;14.90;99422.00;;;;2062084;28;20675;-64
2021/03/12 03:19:40;;;;;;;1.58;0.80;;;;;14.90;99423.00;;;;2074661;28;20550;-63
2021/03/12 03:20:40;;;;;;;1.27;0.70;;;;;14.90;99422.00;;;;2091753;28;20232;-64
2021/03/12 03:21:42;;;;;;;3.20;0.77;;;;;14.90;99426.00;;;;2070383;28;20767;-64
2021/03/12 03:22:43;;;;;;;1.10;0.70;;;;;14.90;99430.00;;;;2066209;28;20258;-64
2021/03/12 03:23:44;;;;;;;1.30;0.82;;;;;14.90;99424.00;;;;2083361;28;20217;-64
2021/03/12 03:24:45;;;;;;;1.20;0.70;;;;;14.90;99428.00;;;;2082395;28;20706;-64
2021/03/12 03:25:45;;;;;;;1.30;0.90;;;;;14.90;99431.00;;;;2067652;28;20211;-64
2021/03/12 03:26:45;;;;;;;1.10;0.80;;;;;14.90;99437.00;;;;2067204;28;20240;-64
2021/03/12 03:27:46;;;;;;;1.40;0.83;;;;;14.90;99421.00;;;;2078066;28;20705;-64
2021/03/12 03:28:46;;;;;;;1.50;0.83;;;;;14.90;99431.00;;;;2070211;28;20682;-64
2021/03/12 03:29:46;;;;;;;1.67;1.00;;;;;14.90;99429.00;;;;2073566;28;20217;-64
2021/03/12 03:30:47;;;;;;;1.30;0.80;;;;;14.90;99422.00;;;;2084620;28;20702;-64
2021/03/12 03:31:47;;;;;;;1.30;0.70;;;;;14.90;99431.00;;;;2084384;28;20261;-64
2021/03/12 03:32:48;;;;;;;1.57;0.80;;;;;14.90;99419.00;;;;2075777;28;20341;-64
2021/03/12 03:33:48;;;;;;;1.17;0.70;;;;;14.90;99424.00;;;;2075847;28;20751;-64
2021/03/12 03:34:49;;;;;;;1.73;0.90;;;;;14.90;99438.00;;;;2084098;28;20206;-64
2021/03/12 03:35:49;;;;;;;1.67;1.00;;;;;14.90;99431.00;;;;2084493;28;20209;-64
2021/03/12 03:36:50;;;;;;;1.33;1.13;;;;;14.90;99434.00;;;;2083652;28;20572;-64
2021/03/12 03:37:50;;;;;;;1.20;0.63;;;;;14.90;99439.00;;;;2084369;28;20202;-64
2021/03/12 03:38:50;;;;;;;1.10;0.70;;;;;14.90;99435.00;;;;2084158;28;20249;-64
2021/03/12 03:39:51;;;;;;;0.87;0.60;;;;;14.90;99431.00;;;;2084477;28;20222;-64
2021/03/12 03:40:51;;;;;;;1.37;0.80;;;;;14.90;99446.00;;;;2084752;28;20703;-64
2021/03/12 03:41:52;;;;;;;1.70;0.80;;;;;14.90;99436.00;;;;2084345;28;20229;-64
2021/03/12 03:42:53;;;;;;;1.55;0.80;;;;;14.90;99432.00;;;;2085352;28;20217;-64
2021/03/12 03:43:53;;;;;;;1.13;0.80;;;;;14.90;99450.00;;;;2065024;28;20781;-64
2021/03/12 03:44:55;;;;;;;2.27;0.97;;;;;14.90;99446.00;;;;2066902;28;20585;-62
2021/03/12 03:45:56;;;;;;;1.48;0.85;;;;;14.90;99448.00;;;;2076819;28;20464;-62
2021/03/12 03:46:57;;;;;;;1.23;0.60;;;;;14.90;99447.00;;;;2058426;28;20211;-62
2021/03/12 03:47:57;;;;;;;1.83;1.00;;;;;14.90;99448.00;;;;2059447;28;20220;-62
2021/03/12 03:48:58;;;;;;;1.47;1.07;;;;;14.90;99452.00;;;;2067433;28;20991;-62
2021/03/12 03:49:58;;;;;;;1.63;0.97;;;;;14.90;99450.00;;;;2075283;28;20207;-62
2021/03/12 03:50:58;;;;;;;1.20;0.80;;;;;14.90;99466.00;;;;2089978;28;20793;-62
2021/03/12 03:51:59;;;;;;;1.70;1.00;;;;;14.90;99439.00;;;;2085940;28;20221;-62
2021/03/12 03:52:59;;;;;;;1.57;0.90;;;;;14.90;99459.00;;;;2065992;28;20227;-62
2021/03/12 03:54:00;;;;;;;1.93;0.83;;;;;14.90;99471.00;;;;2059525;28;20239;-63
2021/03/12 03:55:00;;;;;;;2.08;1.02;;;;;14.90;99467.00;;;;2067565;28;20242;-62
2021/03/12 03:56:02;;;;;;;1.33;1.00;;;;;14.90;99456.00;;;;2082774;28;20233;-64
2021/03/12 03:57:03;;;;;;;1.95;1.27;;;;;14.90;99466.00;;;;2083252;28;20221;-64
2021/03/12 03:58:03;;;;;;;1.10;0.93;;;;;14.90;99462.00;;;;2082381;28;20252;-65
2021/03/12 03:59:04;;;;;;;2.47;0.90;;;;;14.90;99466.00;;;;2065271;28;20546;-65
2021/03/12 04:00:06;;;;;;;2.60;0.73;;;;;14.90;99470.00;;;;2058968;28;20227;-65
2021/03/12 04:01:06;;;;;;;0.82;0.70;;;;;14.90;99469.00;;;;2074859;28;20329;-63
2021/03/12 04:02:08;;;;;;;1.23;0.90;;;;;14.90;99467.00;;;;2068874;28;20207;-63
2021/03/12 04:03:09;;;;;;;1.05;0.80;;;;;14.90;99466.00;;;;2059436;28;20227;-65
2021/03/12 04:04:09;;;;;;;1.47;1.00;;;;;14.90;99469.00;;;;2066971;28;20205;-65
2021/03/12 04:05:10;;;;;;;1.13;0.87;;;;;14.90;99477.00;;;;2066827;28;20215;-64
2021/03/12 04:06:10;;;;;;;1.07;0.80;;;;;14.90;99481.00;;;;2066995;28;20203;-64
2021/03/12 04:07:12;;;;;;;1.50;0.90;;;;;14.90;99468.00;;;;2074616;28;20964;-64
2021/03/12 04:08:12;;;;;;;1.95;1.02;;;;;14.90;99470.00;;;;2082788;28;20205;-64
2021/03/12 04:09:13;;;;;;;1.13;0.90;;;;;14.90;99477.00;;;;2083663;28;20709;-65
2021/03/12 04:10:14;;;;;;;1.05;0.73;;;;;14.90;99474.00;;;;2081705;28;20785;-65
2021/03/12 04:11:15;;;;;;;1.10;0.90;;;;;14.90;99468.00;;;;2075168;28;20214;-64
2021/03/12 04:12:15;;;;;;;1.37;0.90;;;;;14.90;99479.00;;;;2075058;28;20294;-65
2021/03/12 04:13:16;;;;;;;1.40;0.70;;;;;14.90;99465.00;;;;2075193;28;20293;-64
2021/03/12 04:14:16;;;;;;;1.60;1.30;;;;;14.90;99465.00;;;;2074722;28;20206;-65
2021/03/12 04:15:17;;;;;;;1.17;1.00;;;;;14.90;99480.00;;;;2075013;28;20222;-64
2021/03/12 04:16:17;;;;;;;0.97;0.87;;;;;14.90;99483.00;;;;2072331;28;20214;-65
2021/03/12 04:17:17;;;;;;;1.30;0.97;;;;;14.90;99483.00;;;;2069572;28;20211;-64
2021/03/12 04:18:18;;;;;;;1.90;1.00;;;;;14.90;99481.00;;;;2081981;28;20225;-65
2021/03/12 04:19:18;;;;;;;1.70;1.03;;;;;14.90;99494.00;;;;2076971;28;20210;-65
2021/03/12 04:20:18;;;;;;;1.50;1.00;;;;;14.90;99490.00;;;;2074121;28;20263;-64
2021/03/12 04:21:19;;;;;;;1.20;0.80;;;;;14.90;99490.00;;;;2061565;28;20254;-65
2021/03/12 04:22:19;;;;;;;1.40;0.80;;;;;14.90;99495.00;;;;2066525;28;20211;-65
2021/03/12 04:23:19;;;;;;;1.20;1.07;;;;;14.90;99486.00;;;;2082600;28;20201;-64
2021/03/12 04:24:20;;;;;;;1.00;0.83;;;;;14.90;99489.00;;;;2082706;28;20205;-64
2021/03/12 04:25:20;;;;;;;1.27;0.90;;;;;14.90;99492.00;;;;2076273;28;20206;-64
2021/03/12 04:26:20;;;;;;;1.83;1.17;;;;;14.90;99495.00;;;;2076361;28;20218;-64
2021/03/12 04:27:21;;;;;;;1.77;1.10;;;;;14.90;99498.00;;;;2077803;28;20616;-64
2021/03/12 04:28:21;;;;;;;1.17;0.73;;;;;14.90;99499.00;;;;2085814;28;20240;-64
2021/03/12 04:29:21;;;;;;;1.00;0.90;;;;;14.90;99504.00;;;;2084178;28;20304;-64
2021/03/12 04:30:22;;;;;;;3.70;1.10;;;;;14.90;99506.00;;;;2067994;28;20214;-64
2021/03/12 04:31:22;;;;;;;1.00;0.80;;;;;14.90;99501.00;;;;2060681;28;20667;-65
2021/03/12 04:32:23;;;;;;;3.03;1.03;;;;;14.90;99499.00;;;;2055376;28;20243;-65
2021/03/12 04:33:23;;;;;;;1.80;1.13;;;;;14.90;99506.00;;;;2061604;28;20218;-64
2021/03/12 04:34:23;;;;;;;1.60;0.87;;;;;14.90;99513.00;;;;2076934;28;20252;-64
2021/03/12 04:35:24;;;;;;;1.60;0.90;;;;;14.90;99502.00;;;;2076906;28;20732;-64
2021/03/12 04:36:24;;;;;;;1.10;0.77;;;;;14.90;99509.00;;;;2068089;28;20258;-65
2021/03/12 04:37:24;;;;;;;1.90;0.90;;;;;14.90;99506.00;;;;2068764;28;20301;-64
2021/03/12 04:38:25;;;;;;;1.33;0.70;;;;;14.90;99510.00;;;;2060678;28;20242;-64
2021/03/12 04:39:25;;;;;;;1.60;1.00;;;;;14.90;99510.00;;;;2060528;28;20710;-64
2021/03/12 04:40:26;;;;;;;1.13;0.90;;;;;14.90;99511.00;;;;2077131;28;20241;-65
2021/03/12 04:41:26;;;;;;;1.13;0.90;;;;;14.90;99515.00;;;;2092267;28;20217;-64
2021/03/12 04:42:26;;;;;;;2.00;0.90;;;;;14.90;99527.00;;;;2083879;28;20302;-65
2021/03/12 04:43:27;;;;;;;1.93;1.10;;;;;14.90;99502.00;;;;2068670;28;20214;-65
2021/03/12 04:44:27;;;;;;;1.43;1.00;;;;;14.90;99522.00;;;;2068671;28;20206;-64
2021/03/12 04:45:27;;;;;;;1.37;1.03;;;;;14.90;99522.00;;;;2068685;28;20214;-65
2021/03/12 04:46:28;;;;;;;1.70;0.90;;;;;14.90;99533.00;;;;2060329;28;21895;-65
2021/03/12 04:47:28;;;;;;;1.20;1.10;;;;;14.90;99492.00;;;;2068460;28;20223;-64
2021/03/12 04:48:31;;;;;;;1.00;0.90;;;;;14.90;99518.00;;;;2073309;28;20238;-65
2021/03/12 04:49:32;;;;;;;1.73;1.10;;;;;14.90;99523.00;;;;2083451;28;20637;-64
2021/03/12 04:50:32;;;;;;;2.33;0.90;;;;;14.90;99529.00;;;;2068498;28;20284;-63
2021/03/12 04:51:32;;;;;;;1.77;0.93;;;;;14.90;99526.00;;;;2076977;28;20210;-64
2021/03/12 04:52:33;;;;;;;1.77;0.97;;;;;14.90;99529.00;;;;2076541;28;20612;-64
2021/03/12 04:53:33;;;;;;;1.37;0.93;;;;;14.90;99534.00;;;;2076869;28;20261;-65
2021/03/12 04:54:34;;;;;;;1.10;1.00;;;;;14.90;99538.00;;;;2076719;28;20213;-63
2021/03/12 04:55:35;;;;;;;1.63;1.10;;;;;14.90;99532.00;;;;2076761;28;20222;-65
2021/03/12 04:56:35;;;;;;;1.10;0.90;;;;;14.90;99537.00;;;;2075895;28;20229;-65
2021/03/12 04:57:36;;;;;;;0.90;0.70;;;;;14.90;99535.00;;;;2068531;28;20305;-64
2021/03/12 04:58:37;;;;;;;1.40;0.80;;;;;14.90;99533.00;;;;2069385;28;20210;-64
2021/03/12 04:59:37;;;;;;;1.45;1.17;;;;;14.90;99538.00;;;;2084802;28;20293;-65
2021/03/12 05:00:38;;;;;;;1.57;0.90;;;;;14.90;99548.00;;;;2076325;28;20686;-65
2021/03/12 05:01:41;;;;;;;1.10;0.90;;;;;14.80;99536.00;;;;2068210;28;20203;-65
2021/03/12 05:02:41;;;;;;;1.88;0.82;;;;;14.90;99538.00;;;;2076115;28;20700;-65
2021/03/12 05:03:42;;;;;;;1.73;1.07;;;;;14.90;99527.00;;;;2075992;28;20261;-65
2021/03/12 05:04:42;;;;;;;1.03;0.60;;;;;14.90;99538.00;;;;2076247;28;20210;-65
2021/03/12 05:05:42;;;;;;;1.23;0.70;;;;;14.90;99536.00;;;;2076503;28;20268;-65
2021/03/12 05:06:43;;;;;;;1.27;0.93;;;;;14.90;99529.00;;;;2067633;28;20318;-65
2021/03/12 05:07:44;;;;;;;1.23;0.83;;;;;14.90;99549.00;;;;2076715;28;20214;-65